Terminal Aerodrome Forecast
Issued by NWS

Home | Current Version | Previous Version | Text Only | Print | Product List | Glossary On
Versions: 1 2 3 4 5 6 7 8 9 10 11 12 13 14 15 16 17 18 19 20 21 22 23 24 25 26
000
FTUS46 KSEW 160034 AAA
TAFHQM
TAF AMD
KHQM 160034Z 1601/1624 30010KT P6SM BKN015
      TEMPO 1601/1604 SCT017
     FM160400 29008KT P6SM OVC015
     FM160900 26005KT 6SM BR OVC008
     FM162000 26012G18KT P6SM OVC014=

USA.gov is the U.S. government's official web portal to all federal, state and local government web resources and services.